West Middlesex, Pennsylvania
Current Conditions -  °F | °C
As of 2:51 AM on Saturday 29 Nov 2014 (Local Time) from KYNG Reporting Station
Overcast Overcast  
Wind Chill: 18°   Ceiling: 6500
Heat Index: 27°   Visibility: 10mi
Dew Point: 20°   Wind: 9mph
Humidity: 75%   Direction: 140°SE
Pressure: 30.12"   Gusts: NA
Location:  41.17°N, 80.45°W
Report Text: KYNG 290751Z 14008KT 10SM OVC065 M03/M07 A3012 RMK AO2 SLP215 T10281067
Loading
Personal Weather Stations






























Interactive Weather Map New forecast layout! Learn more

10-Day Weather Forecast

Advertisements
Track Severe Weather on mobile